Dodge City Regional Airport
KDDC : now visible

Airfield :











YOU CAN JOIN US ON...

 
LOGIN :

Register | Disclaimer

   EN    FR    IT 

 









Legend :    VFR   Marginal VFR   IFR   Intensive IFR   Very Intensive IFR
Visi :
Ceiling :
>= 8 km
>= 3000ft
5 to 8 km
1000 to 3000 ft
1500m to 5 km
500 to 1000 ft
800 to 1500m
200 to 500 ft
< 800m
< 200 ft
Symbols :   Thunderstorms  Fog  Heavy snow  Heavy precipitations  Wind > 20 kt






- Airport Elevation : 2594 ft
- IATA code : DDC


KDDC - Dodge City Regional

CURRENT METAR :
  • 261752Z AUTO 01016KT 8SM OVC016 M07/M09 A3038 RMK AO2 PK WND 01026/1716 SLP321 60006 T10671094 11067 21078 53004

EXPIRED METARs :
  • 261652Z AUTO 01015G24KT 7SM BKN015 OVC060 M07/M09 A3037 RMK AO2 PK WND 02028/1622 SLP315 T10671094
  • 261642Z AUTO 02016G25KT 8SM BKN015 OVC060 M07/M10 A3036 RMK AO2 PK WND 02028/1622 T10721100
  • 261607Z AUTO 01018G27KT 5SM HZ SCT014 OVC060 M07/M10 A3036 RMK AO2 PK WND 01027/1603 T10721100
  • 261552Z AUTO 01021KT 4SM HZ BKN014 OVC060 M07/M10 A3035 RMK AO2 PK WND 01027/1507 SNE27 SLP309 P0000 T10721100

TAF KDDC
Valid from the 26 at 18:00 until the 27 at 18:00 UTC


261726Z 2618/2718 01014G22KT P6SM -SN OVC015
FM262300 01012KT P6SM OVC019
FM270300 VRB06KT P6SM OVC020
FM271100 35007KT P6SM BKN040
KZKC FIR / North America



MET'MAP, your aeronautical weather chart ! - Copyright ORBIFLY December 2007 - Disclaimer

ORBIFLY MET'MAP TEAM :

Programming & Development : Alexandra Zaïnal
Concept & original design : Baudouin d'Aumeries
Assistance for programming : Marc-Olivier Méhu
Technical & hardware support : Manuel Goepfert

Contact : metmap@orbifly.com




SOURCES & CREDITS :

   NOAA       Earth
Advisory